sensor_id;sensor_type;location;lat;lon;timestamp;P1;durP1;ratioP1;P2;durP2;ratioP2
64060;SDS011;60147;55.036;73.242;2023-04-10T00:01:51;13.88;;;5.68;;
64060;SDS011;60147;55.036;73.242;2023-04-10T00:04:22;11.73;;;5.35;;
64060;SDS011;60147;55.036;73.242;2023-04-10T00:07:07;10.90;;;5.70;;
64060;SDS011;60147;55.036;73.242;2023-04-10T00:09:32;10.00;;;5.18;;
64060;SDS011;60147;55.036;73.242;2023-04-10T00:12:03;9.95;;;5.43;;
64060;SDS011;60147;55.036;73.242;2023-04-10T00:14:58;13.75;;;5.47;;
64060;SDS011;60147;55.036;73.242;2023-04-10T00:17:42;9.00;;;4.97;;
64060;SDS011;60147;55.036;73.242;2023-04-10T00:20:18;20.13;;;6.55;;
64060;SDS011;60147;55.036;73.242;2023-04-10T00:23:02;10.35;;;5.30;;
64060;SDS011;60147;55.036;73.242;2023-04-10T00:25:28;15.90;;;6.13;;
64060;SDS011;60147;55.036;73.242;2023-04-10T00:27:54;11.93;;;5.35;;
64060;SDS011;60147;55.036;73.242;2023-04-10T00:30:20;14.68;;;5.78;;
64060;SDS011;60147;55.036;73.242;2023-04-10T00:35:17;12.40;;;5.70;;
64060;SDS011;60147;55.036;73.242;2023-04-10T00:37:42;15.98;;;5.82;;
64060;SDS011;60147;55.036;73.242;2023-04-10T00:43:04;13.45;;;5.28;;
64060;SDS011;60147;55.036;73.242;2023-04-10T00:48:20;9.30;;;5.05;;
64060;SDS011;60147;55.036;73.242;2023-04-10T00:50:52;14.73;;;5.55;;
64060;SDS011;60147;55.036;73.242;2023-04-10T00:53:18;12.02;;;4.82;;
64060;SDS011;60147;55.036;73.242;2023-04-10T00:55:45;13.30;;;5.70;;
64060;SDS011;60147;55.036;73.242;2023-04-10T00:58:13;10.23;;;5.55;;
64060;SDS011;60147;55.036;73.242;2023-04-10T01:00:39;12.13;;;5.22;;
64060;SDS011;60147;55.036;73.242;2023-04-10T01:03:24;11.65;;;4.82;;
64060;SDS011;60147;55.036;73.242;2023-04-10T01:06:17;9.90;;;5.25;;
64060;SDS011;60147;55.036;73.242;2023-04-10T01:09:09;20.73;;;6.82;;
64060;SDS011;60147;55.036;73.242;2023-04-10T01:22:18;15.65;;;6.53;;
64060;SDS011;60147;55.036;73.242;2023-04-10T01:28:00;18.52;;;6.18;;
64060;SDS011;60147;55.036;73.242;2023-04-10T01:30:39;13.73;;;5.80;;
64060;SDS011;60147;55.036;73.242;2023-04-10T01:33:07;22.75;;;6.53;;
64060;SDS011;60147;55.036;73.242;2023-04-10T01:35:46;19.05;;;6.75;;
64060;SDS011;60147;55.036;73.242;2023-04-10T01:44:11;14.00;;;5.55;;
64060;SDS011;60147;55.036;73.242;2023-04-10T01:49:46;15.30;;;5.93;;
64060;SDS011;60147;55.036;73.242;2023-04-10T01:52:30;13.52;;;5.65;;
64060;SDS011;60147;55.036;73.242;2023-04-10T01:55:21;17.23;;;6.22;;
64060;SDS011;60147;55.036;73.242;2023-04-10T01:57:54;18.73;;;6.90;;
64060;SDS011;60147;55.036;73.242;2023-04-10T02:00:22;16.27;;;5.55;;
64060;SDS011;60147;55.036;73.242;2023-04-10T02:02:48;13.07;;;6.07;;
64060;SDS011;60147;55.036;73.242;2023-04-10T02:05:15;14.60;;;6.13;;
64060;SDS011;60147;55.036;73.242;2023-04-10T02:15:46;13.38;;;5.15;;
64060;SDS011;60147;55.036;73.242;2023-04-10T02:18:15;10.93;;;5.28;;
64060;SDS011;60147;55.036;73.242;2023-04-10T02:20:41;9.90;;;4.93;;
64060;SDS011;60147;55.036;73.242;2023-04-10T02:23:18;9.88;;;4.75;;
64060;SDS011;60147;55.036;73.242;2023-04-10T02:25:45;14.02;;;5.25;;
64060;SDS011;60147;55.036;73.242;2023-04-10T02:28:11;18.73;;;6.15;;
64060;SDS011;60147;55.036;73.242;2023-04-10T02:30:36;9.55;;;5.35;;
64060;SDS011;60147;55.036;73.242;2023-04-10T02:33:13;10.98;;;5.28;;
64060;SDS011;60147;55.036;73.242;2023-04-10T02:35:39;13.68;;;5.88;;
64060;SDS011;60147;55.036;73.242;2023-04-10T02:40:50;10.90;;;5.38;;
64060;SDS011;60147;55.036;73.242;2023-04-10T02:46:01;13.88;;;7.18;;
64060;SDS011;60147;55.036;73.242;2023-04-10T02:48:32;16.63;;;6.50;;
64060;SDS011;60147;55.036;73.242;2023-04-10T02:51:16;15.07;;;5.53;;
64060;SDS011;60147;55.036;73.242;2023-04-10T02:54:02;14.27;;;5.22;;
64060;SDS011;60147;55.036;73.242;2023-04-10T02:56:40;14.30;;;5.20;;
64060;SDS011;60147;55.036;73.242;2023-04-10T03:01:37;19.15;;;5.93;;
64060;SDS011;60147;55.036;73.242;2023-04-10T03:04:32;18.10;;;5.70;;
64060;SDS011;60147;55.036;73.242;2023-04-10T03:06:59;11.65;;;4.85;;
64060;SDS011;60147;55.036;73.242;2023-04-10T03:12:20;13.02;;;5.30;;
64060;SDS011;60147;55.036;73.242;2023-04-10T03:15:05;14.38;;;5.45;;
64060;SDS011;60147;55.036;73.242;2023-04-10T03:17:36;11.07;;;5.10;;
64060;SDS011;60147;55.036;73.242;2023-04-10T03:20:02;10.40;;;5.40;;
64060;SDS011;60147;55.036;73.242;2023-04-10T03:22:39;20.23;;;6.00;;
64060;SDS011;60147;55.036;73.242;2023-04-10T03:25:07;18.60;;;6.00;;
64060;SDS011;60147;55.036;73.242;2023-04-10T03:27:37;10.30;;;4.85;;
64060;SDS011;60147;55.036;73.242;2023-04-10T03:30:02;15.57;;;6.18;;
64060;SDS011;60147;55.036;73.242;2023-04-10T03:32:37;11.05;;;6.10;;
64060;SDS011;60147;55.036;73.242;2023-04-10T03:35:08;10.73;;;5.28;;
64060;SDS011;60147;55.036;73.242;2023-04-10T03:37:35;10.80;;;5.30;;
64060;SDS011;60147;55.036;73.242;2023-04-10T03:40:04;11.52;;;5.38;;
64060;SDS011;60147;55.036;73.242;2023-04-10T03:42:30;16.88;;;5.60;;
64060;SDS011;60147;55.036;73.242;2023-04-10T03:44:57;14.25;;;5.80;;
64060;SDS011;60147;55.036;73.242;2023-04-10T03:47:22;12.00;;;5.47;;
64060;SDS011;60147;55.036;73.242;2023-04-10T03:49:51;11.43;;;4.75;;
64060;SDS011;60147;55.036;73.242;2023-04-10T03:52:35;9.52;;;4.57;;
64060;SDS011;60147;55.036;73.242;2023-04-10T03:55:01;23.15;;;6.00;;
64060;SDS011;60147;55.036;73.242;2023-04-10T03:57:27;11.10;;;5.80;;
64060;SDS011;60147;55.036;73.242;2023-04-10T04:00:12;13.88;;;5.80;;
64060;SDS011;60147;55.036;73.242;2023-04-10T04:02:56;13.75;;;5.35;;
64060;SDS011;60147;55.036;73.242;2023-04-10T04:05:41;14.57;;;4.57;;
64060;SDS011;60147;55.036;73.242;2023-04-10T04:08:30;11.07;;;5.20;;
64060;SDS011;60147;55.036;73.242;2023-04-10T04:11:16;12.18;;;5.60;;
64060;SDS011;60147;55.036;73.242;2023-04-10T04:14:03;8.60;;;4.63;;
64060;SDS011;60147;55.036;73.242;2023-04-10T04:17:04;9.63;;;4.78;;
64060;SDS011;60147;55.036;73.242;2023-04-10T04:19:49;12.50;;;5.95;;
64060;SDS011;60147;55.036;73.242;2023-04-10T04:25:36;16.33;;;5.38;;
64060;SDS011;60147;55.036;73.242;2023-04-10T04:28:20;11.23;;;4.80;;
64060;SDS011;60147;55.036;73.242;2023-04-10T04:31:07;11.05;;;5.28;;
64060;SDS011;60147;55.036;73.242;2023-04-10T04:33:52;15.48;;;5.45;;
64060;SDS011;60147;55.036;73.242;2023-04-10T04:36:30;13.85;;;5.28;;
64060;SDS011;60147;55.036;73.242;2023-04-10T04:39:14;15.05;;;5.25;;
64060;SDS011;60147;55.036;73.242;2023-04-10T04:41:59;15.25;;;4.70;;
64060;SDS011;60147;55.036;73.242;2023-04-10T04:45:04;12.15;;;4.60;;
64060;SDS011;60147;55.036;73.242;2023-04-10T04:48:15;10.73;;;4.30;;
64060;SDS011;60147;55.036;73.242;2023-04-10T04:51:05;12.13;;;5.50;;
64060;SDS011;60147;55.036;73.242;2023-04-10T04:53:46;11.85;;;5.10;;
64060;SDS011;60147;55.036;73.242;2023-04-10T04:56:27;14.63;;;5.78;;
64060;SDS011;60147;55.036;73.242;2023-04-10T04:59:43;16.83;;;6.28;;
64060;SDS011;60147;55.036;73.242;2023-04-10T05:02:41;12.50;;;5.20;;
64060;SDS011;60147;55.036;73.242;2023-04-10T05:05:32;14.57;;;5.47;;
64060;SDS011;60147;55.036;73.242;2023-04-10T05:08:33;15.90;;;5.18;;
64060;SDS011;60147;55.036;73.242;2023-04-10T05:11:37;13.07;;;6.28;;
64060;SDS011;60147;55.036;73.242;2023-04-10T05:14:18;21.38;;;6.22;;
64060;SDS011;60147;55.036;73.242;2023-04-10T05:16:57;14.60;;;5.40;;
64060;SDS011;60147;55.036;73.242;2023-04-10T05:19:53;22.48;;;6.18;;
64060;SDS011;60147;55.036;73.242;2023-04-10T05:22:37;14.70;;;5.05;;
64060;SDS011;60147;55.036;73.242;2023-04-10T05:25:45;12.02;;;5.88;;
64060;SDS011;60147;55.036;73.242;2023-04-10T05:28:40;15.48;;;4.60;;
64060;SDS011;60147;55.036;73.242;2023-04-10T05:31:24;13.23;;;4.85;;
64060;SDS011;60147;55.036;73.242;2023-04-10T05:37:12;10.02;;;4.80;;
64060;SDS011;60147;55.036;73.242;2023-04-10T05:39:58;12.85;;;4.65;;
64060;SDS011;60147;55.036;73.242;2023-04-10T05:42:44;13.35;;;5.25;;
64060;SDS011;60147;55.036;73.242;2023-04-10T05:45:36;12.05;;;4.88;;
64060;SDS011;60147;55.036;73.242;2023-04-10T05:48:28;19.40;;;5.45;;
64060;SDS011;60147;55.036;73.242;2023-04-10T05:54:21;10.73;;;5.20;;
64060;SDS011;60147;55.036;73.242;2023-04-10T05:57:10;14.07;;;4.70;;
64060;SDS011;60147;55.036;73.242;2023-04-10T05:59:45;12.00;;;4.25;;
64060;SDS011;60147;55.036;73.242;2023-04-10T06:02:38;14.30;;;5.03;;
64060;SDS011;60147;55.036;73.242;2023-04-10T06:05:06;12.07;;;4.40;;
64060;SDS011;60147;55.036;73.242;2023-04-10T06:07:34;8.35;;;4.45;;
64060;SDS011;60147;55.036;73.242;2023-04-10T06:10:18;10.93;;;4.22;;
64060;SDS011;60147;55.036;73.242;2023-04-10T06:12:44;12.25;;;4.53;;
64060;SDS011;60147;55.036;73.242;2023-04-10T06:15:12;6.28;;;3.38;;
64060;SDS011;60147;55.036;73.242;2023-04-10T06:17:56;14.63;;;5.25;;
64060;SDS011;60147;55.036;73.242;2023-04-10T06:20:22;18.33;;;4.47;;
64060;SDS011;60147;55.036;73.242;2023-04-10T06:22:50;9.95;;;4.90;;
64060;SDS011;60147;55.036;73.242;2023-04-10T06:25:16;9.82;;;4.28;;
64060;SDS011;60147;55.036;73.242;2023-04-10T06:27:52;13.02;;;4.47;;
64060;SDS011;60147;55.036;73.242;2023-04-10T06:33:05;9.90;;;4.00;;
64060;SDS011;60147;55.036;73.242;2023-04-10T06:35:35;11.18;;;4.63;;
64060;SDS011;60147;55.036;73.242;2023-04-10T06:40:57;20.38;;;4.28;;
64060;SDS011;60147;55.036;73.242;2023-04-10T06:43:41;12.30;;;3.70;;
64060;SDS011;60147;55.036;73.242;2023-04-10T06:46:07;8.02;;;3.70;;
64060;SDS011;60147;55.036;73.242;2023-04-10T06:48:41;13.00;;;4.72;;
64060;SDS011;60147;55.036;73.242;2023-04-10T06:51:07;8.15;;;4.15;;
64060;SDS011;60147;55.036;73.242;2023-04-10T06:53:33;11.18;;;3.63;;
64060;SDS011;60147;55.036;73.242;2023-04-10T06:59:02;13.55;;;3.72;;
64060;SDS011;60147;55.036;73.242;2023-04-10T07:01:28;12.48;;;4.03;;
64060;SDS011;60147;55.036;73.242;2023-04-10T07:03:54;16.10;;;4.13;;
64060;SDS011;60147;55.036;73.242;2023-04-10T07:06:20;11.75;;;3.28;;
64060;SDS011;60147;55.036;73.242;2023-04-10T07:08:49;10.32;;;4.30;;
64060;SDS011;60147;55.036;73.242;2023-04-10T07:11:15;11.85;;;4.13;;
64060;SDS011;60147;55.036;73.242;2023-04-10T07:16:30;19.13;;;4.03;;
64060;SDS011;60147;55.036;73.242;2023-04-10T07:18:57;19.65;;;3.47;;
64060;SDS011;60147;55.036;73.242;2023-04-10T07:22:00;19.90;;;4.53;;
64060;SDS011;60147;55.036;73.242;2023-04-10T07:24:26;13.68;;;3.90;;
64060;SDS011;60147;55.036;73.242;2023-04-10T07:26:52;10.73;;;3.50;;
64060;SDS011;60147;55.036;73.242;2023-04-10T07:29:18;12.60;;;3.63;;
64060;SDS011;60147;55.036;73.242;2023-04-10T07:31:44;10.10;;;3.40;;
64060;SDS011;60147;55.036;73.242;2023-04-10T07:34:11;7.07;;;3.22;;
64060;SDS011;60147;55.036;73.242;2023-04-10T07:37:00;7.90;;;3.30;;
64060;SDS011;60147;55.036;73.242;2023-04-10T07:39:26;14.40;;;4.15;;
64060;SDS011;60147;55.036;73.242;2023-04-10T07:44:22;15.02;;;4.68;;
64060;SDS011;60147;55.036;73.242;2023-04-10T07:46:56;12.70;;;5.10;;
64060;SDS011;60147;55.036;73.242;2023-04-10T07:49:50;21.25;;;4.55;;
64060;SDS011;60147;55.036;73.242;2023-04-10T07:52:35;18.63;;;4.53;;
64060;SDS011;60147;55.036;73.242;2023-04-10T07:55:01;22.60;;;4.80;;
64060;SDS011;60147;55.036;73.242;2023-04-10T07:57:27;19.10;;;3.97;;
64060;SDS011;60147;55.036;73.242;2023-04-10T08:00:04;17.48;;;4.55;;
64060;SDS011;60147;55.036;73.242;2023-04-10T08:02:38;18.05;;;4.13;;
64060;SDS011;60147;55.036;73.242;2023-04-10T08:05:05;10.05;;;3.67;;
64060;SDS011;60147;55.036;73.242;2023-04-10T08:07:31;12.57;;;4.05;;
64060;SDS011;60147;55.036;73.242;2023-04-10T08:09:57;9.38;;;3.22;;
64060;SDS011;60147;55.036;73.242;2023-04-10T08:12:23;12.95;;;3.38;;
64060;SDS011;60147;55.036;73.242;2023-04-10T08:14:49;6.53;;;2.63;;
64060;SDS011;60147;55.036;73.242;2023-04-10T08:17:16;14.57;;;3.50;;
64060;SDS011;60147;55.036;73.242;2023-04-10T08:19:44;8.60;;;3.10;;
64060;SDS011;60147;55.036;73.242;2023-04-10T08:22:10;11.35;;;3.35;;
64060;SDS011;60147;55.036;73.242;2023-04-10T08:24:36;9.80;;;2.88;;
64060;SDS011;60147;55.036;73.242;2023-04-10T08:27:01;11.85;;;3.25;;
64060;SDS011;60147;55.036;73.242;2023-04-10T08:29:35;26.55;;;4.07;;
64060;SDS011;60147;55.036;73.242;2023-04-10T08:32:29;16.75;;;3.20;;
64060;SDS011;60147;55.036;73.242;2023-04-10T08:34:57;13.98;;;3.72;;
64060;SDS011;60147;55.036;73.242;2023-04-10T08:37:24;22.98;;;3.05;;
64060;SDS011;60147;55.036;73.242;2023-04-10T08:40:09;15.20;;;3.40;;
64060;SDS011;60147;55.036;73.242;2023-04-10T08:42:35;11.52;;;3.13;;
64060;SDS011;60147;55.036;73.242;2023-04-10T08:47:46;14.32;;;3.47;;
64060;SDS011;60147;55.036;73.242;2023-04-10T08:50:12;21.15;;;3.47;;
64060;SDS011;60147;55.036;73.242;2023-04-10T08:52:58;16.42;;;3.13;;
64060;SDS011;60147;55.036;73.242;2023-04-10T08:55:26;17.42;;;3.95;;
64060;SDS011;60147;55.036;73.242;2023-04-10T08:57:52;8.95;;;3.30;;
64060;SDS011;60147;55.036;73.242;2023-04-10T09:00:23;17.40;;;4.10;;
64060;SDS011;60147;55.036;73.242;2023-04-10T09:02:49;30.65;;;4.63;;
64060;SDS011;60147;55.036;73.242;2023-04-10T09:05:19;21.30;;;3.20;;
64060;SDS011;60147;55.036;73.242;2023-04-10T09:07:45;12.93;;;3.47;;
64060;SDS011;60147;55.036;73.242;2023-04-10T09:10:11;23.65;;;4.05;;
64060;SDS011;60147;55.036;73.242;2023-04-10T09:12:48;22.75;;;3.83;;
64060;SDS011;60147;55.036;73.242;2023-04-10T09:15:14;20.77;;;3.58;;
64060;SDS011;60147;55.036;73.242;2023-04-10T09:20:35;22.20;;;4.32;;
64060;SDS011;60147;55.036;73.242;2023-04-10T09:23:19;16.20;;;3.70;;
64060;SDS011;60147;55.036;73.242;2023-04-10T09:25:46;10.88;;;3.92;;
64060;SDS011;60147;55.036;73.242;2023-04-10T09:28:12;16.58;;;3.20;;
64060;SDS011;60147;55.036;73.242;2023-04-10T09:30:39;10.90;;;4.05;;
64060;SDS011;60147;55.036;73.242;2023-04-10T09:33:24;12.73;;;3.67;;
64060;SDS011;60147;55.036;73.242;2023-04-10T09:36:00;13.73;;;3.38;;
64060;SDS011;60147;55.036;73.242;2023-04-10T09:38:26;10.32;;;3.03;;
64060;SDS011;60147;55.036;73.242;2023-04-10T09:40:51;20.42;;;3.38;;
64060;SDS011;60147;55.036;73.242;2023-04-10T09:43:20;12.55;;;3.50;;
64060;SDS011;60147;55.036;73.242;2023-04-10T09:45:47;13.93;;;3.35;;
64060;SDS011;60147;55.036;73.242;2023-04-10T09:48:31;11.57;;;3.30;;
64060;SDS011;60147;55.036;73.242;2023-04-10T09:54:01;8.18;;;3.28;;
64060;SDS011;60147;55.036;73.242;2023-04-10T09:56:37;12.70;;;3.05;;
64060;SDS011;60147;55.036;73.242;2023-04-10T09:59:09;11.13;;;2.80;;
64060;SDS011;60147;55.036;73.242;2023-04-10T10:01:36;9.68;;;4.00;;
64060;SDS011;60147;55.036;73.242;2023-04-10T10:06:47;7.40;;;3.33;;
64060;SDS011;60147;55.036;73.242;2023-04-10T10:09:23;13.15;;;3.80;;
64060;SDS011;60147;55.036;73.242;2023-04-10T10:11:50;12.88;;;3.33;;
64060;SDS011;60147;55.036;73.242;2023-04-10T10:17:20;13.55;;;2.97;;
64060;SDS011;60147;55.036;73.242;2023-04-10T10:20:07;10.85;;;3.33;;
64060;SDS011;60147;55.036;73.242;2023-04-10T10:22:35;8.73;;;2.90;;
64060;SDS011;60147;55.036;73.242;2023-04-10T10:25:01;11.90;;;3.53;;
64060;SDS011;60147;55.036;73.242;2023-04-10T10:27:46;11.57;;;2.80;;
64060;SDS011;60147;55.036;73.242;2023-04-10T10:30:14;6.70;;;2.80;;
64060;SDS011;60147;55.036;73.242;2023-04-10T10:32:47;11.88;;;3.00;;
64060;SDS011;60147;55.036;73.242;2023-04-10T10:35:13;7.07;;;2.60;;
64060;SDS011;60147;55.036;73.242;2023-04-10T10:37:39;10.40;;;3.42;;
64060;SDS011;60147;55.036;73.242;2023-04-10T10:45:18;8.40;;;2.47;;
64060;SDS011;60147;55.036;73.242;2023-04-10T10:48:04;12.88;;;2.78;;
64060;SDS011;60147;55.036;73.242;2023-04-10T10:50:55;14.65;;;2.70;;
64060;SDS011;60147;55.036;73.242;2023-04-10T10:53:35;7.53;;;2.17;;
64060;SDS011;60147;55.036;73.242;2023-04-10T10:58:54;13.80;;;3.15;;
64060;SDS011;60147;55.036;73.242;2023-04-10T11:01:26;6.80;;;3.00;;
64060;SDS011;60147;55.036;73.242;2023-04-10T11:06:47;15.60;;;2.80;;
64060;SDS011;60147;55.036;73.242;2023-04-10T11:12:07;11.35;;;2.70;;
64060;SDS011;60147;55.036;73.242;2023-04-10T11:14:43;13.57;;;2.92;;
64060;SDS011;60147;55.036;73.242;2023-04-10T11:17:13;6.97;;;2.27;;
64060;SDS011;60147;55.036;73.242;2023-04-10T11:20:04;13.18;;;3.35;;
64060;SDS011;60147;55.036;73.242;2023-04-10T11:22:32;10.02;;;3.45;;
64060;SDS011;60147;55.036;73.242;2023-04-10T11:25:17;9.55;;;2.97;;
64060;SDS011;60147;55.036;73.242;2023-04-10T11:30:30;9.13;;;2.70;;
64060;SDS011;60147;55.036;73.242;2023-04-10T11:35:41;6.30;;;2.30;;
64060;SDS011;60147;55.036;73.242;2023-04-10T11:43:59;11.32;;;2.83;;
64060;SDS011;60147;55.036;73.242;2023-04-10T11:46:25;12.75;;;2.92;;
64060;SDS011;60147;55.036;73.242;2023-04-10T11:48:56;14.07;;;2.92;;
64060;SDS011;60147;55.036;73.242;2023-04-10T11:51:21;8.93;;;2.77;;
64060;SDS011;60147;55.036;73.242;2023-04-10T11:54:02;14.77;;;2.83;;
64060;SDS011;60147;55.036;73.242;2023-04-10T11:56:28;6.43;;;2.63;;
64060;SDS011;60147;55.036;73.242;2023-04-10T12:02:07;10.88;;;3.33;;
64060;SDS011;60147;55.036;73.242;2023-04-10T12:04:34;11.02;;;2.88;;
64060;SDS011;60147;55.036;73.242;2023-04-10T12:07:00;10.45;;;3.08;;
64060;SDS011;60147;55.036;73.242;2023-04-10T12:09:26;14.02;;;3.08;;
64060;SDS011;60147;55.036;73.242;2023-04-10T12:12:11;19.25;;;3.22;;
64060;SDS011;60147;55.036;73.242;2023-04-10T12:14:43;10.18;;;3.30;;
64060;SDS011;60147;55.036;73.242;2023-04-10T12:17:09;11.05;;;2.67;;
64060;SDS011;60147;55.036;73.242;2023-04-10T12:19:36;16.70;;;3.35;;
64060;SDS011;60147;55.036;73.242;2023-04-10T12:22:21;14.35;;;3.20;;
64060;SDS011;60147;55.036;73.242;2023-04-10T12:24:47;9.05;;;2.80;;
64060;SDS011;60147;55.036;73.242;2023-04-10T12:27:22;10.20;;;2.80;;
64060;SDS011;60147;55.036;73.242;2023-04-10T12:29:49;9.90;;;2.72;;
64060;SDS011;60147;55.036;73.242;2023-04-10T12:32:52;10.60;;;3.15;;
64060;SDS011;60147;55.036;73.242;2023-04-10T12:35:18;7.05;;;3.00;;
64060;SDS011;60147;55.036;73.242;2023-04-10T12:40:13;8.65;;;3.47;;
64060;SDS011;60147;55.036;73.242;2023-04-10T12:42:39;14.50;;;2.88;;
64060;SDS011;60147;55.036;73.242;2023-04-10T12:45:06;11.43;;;3.45;;
64060;SDS011;60147;55.036;73.242;2023-04-10T12:47:52;8.38;;;3.55;;
64060;SDS011;60147;55.036;73.242;2023-04-10T12:50:18;13.77;;;3.95;;
64060;SDS011;60147;55.036;73.242;2023-04-10T12:53:06;18.52;;;3.85;;
64060;SDS011;60147;55.036;73.242;2023-04-10T12:55:33;7.07;;;2.90;;
64060;SDS011;60147;55.036;73.242;2023-04-10T12:58:14;9.75;;;2.65;;
64060;SDS011;60147;55.036;73.242;2023-04-10T13:03:06;7.85;;;2.83;;
64060;SDS011;60147;55.036;73.242;2023-04-10T13:05:50;6.65;;;2.40;;
64060;SDS011;60147;55.036;73.242;2023-04-10T13:08:16;7.93;;;2.67;;
64060;SDS011;60147;55.036;73.242;2023-04-10T13:11:09;9.02;;;2.30;;
64060;SDS011;60147;55.036;73.242;2023-04-10T13:13:35;11.13;;;2.60;;
64060;SDS011;60147;55.036;73.242;2023-04-10T13:16:20;7.10;;;2.50;;
64060;SDS011;60147;55.036;73.242;2023-04-10T13:18:45;8.75;;;2.70;;
64060;SDS011;60147;55.036;73.242;2023-04-10T13:21:30;6.68;;;2.80;;
64060;SDS011;60147;55.036;73.242;2023-04-10T13:23:56;10.02;;;2.78;;
64060;SDS011;60147;55.036;73.242;2023-04-10T13:26:32;13.60;;;3.35;;
64060;SDS011;60147;55.036;73.242;2023-04-10T13:29:01;9.25;;;2.90;;
64060;SDS011;60147;55.036;73.242;2023-04-10T13:31:27;11.32;;;3.10;;
64060;SDS011;60147;55.036;73.242;2023-04-10T13:33:53;10.88;;;3.10;;
64060;SDS011;60147;55.036;73.242;2023-04-10T13:36:48;11.98;;;2.80;;
64060;SDS011;60147;55.036;73.242;2023-04-10T13:39:32;12.15;;;3.05;;
64060;SDS011;60147;55.036;73.242;2023-04-10T13:41:58;7.68;;;3.15;;
64060;SDS011;60147;55.036;73.242;2023-04-10T13:44:24;12.70;;;3.40;;
64060;SDS011;60147;55.036;73.242;2023-04-10T13:47:08;10.73;;;3.35;;
64060;SDS011;60147;55.036;73.242;2023-04-10T13:55:04;18.15;;;3.30;;
64060;SDS011;60147;55.036;73.242;2023-04-10T13:57:30;13.45;;;3.60;;
64060;SDS011;60147;55.036;73.242;2023-04-10T14:00:00;12.45;;;3.13;;
64060;SDS011;60147;55.036;73.242;2023-04-10T14:02:31;16.20;;;3.13;;
64060;SDS011;60147;55.036;73.242;2023-04-10T14:05:06;12.25;;;3.10;;
64060;SDS011;60147;55.036;73.242;2023-04-10T14:10:22;14.63;;;3.80;;
64060;SDS011;60147;55.036;73.242;2023-04-10T14:12:48;16.85;;;3.30;;
64060;SDS011;60147;55.036;73.242;2023-04-10T14:15:14;13.45;;;4.13;;
64060;SDS011;60147;55.036;73.242;2023-04-10T14:17:45;30.23;;;4.47;;
64060;SDS011;60147;55.036;73.242;2023-04-10T14:20:16;155.90;;;14.45;;
64060;SDS011;60147;55.036;73.242;2023-04-10T14:22:52;56.78;;;5.75;;
64060;SDS011;60147;55.036;73.242;2023-04-10T14:25:18;33.75;;;3.97;;
64060;SDS011;60147;55.036;73.242;2023-04-10T14:27:44;33.30;;;2.92;;
64060;SDS011;60147;55.036;73.242;2023-04-10T14:30:28;37.15;;;3.55;;
64060;SDS011;60147;55.036;73.242;2023-04-10T14:38:55;19.90;;;2.03;;
64060;SDS011;60147;55.036;73.242;2023-04-10T14:41:21;11.50;;;2.10;;
64060;SDS011;60147;55.036;73.242;2023-04-10T14:44:06;6.47;;;1.80;;
64060;SDS011;60147;55.036;73.242;2023-04-10T14:46:50;31.33;;;5.13;;
64060;SDS011;60147;55.036;73.242;2023-04-10T14:49:17;41.53;;;4.43;;
64060;SDS011;60147;55.036;73.242;2023-04-10T14:51:43;30.35;;;4.18;;
64060;SDS011;60147;55.036;73.242;2023-04-10T14:54:14;24.70;;;3.45;;
64060;SDS011;60147;55.036;73.242;2023-04-10T14:56:47;47.85;;;7.85;;
64060;SDS011;60147;55.036;73.242;2023-04-10T14:59:18;32.67;;;4.85;;
64060;SDS011;60147;55.036;73.242;2023-04-10T15:01:54;28.48;;;7.03;;
64060;SDS011;60147;55.036;73.242;2023-04-10T15:04:21;30.48;;;3.67;;
64060;SDS011;60147;55.036;73.242;2023-04-10T15:07:06;16.85;;;3.65;;
64060;SDS011;60147;55.036;73.242;2023-04-10T15:09:32;36.38;;;4.05;;
64060;SDS011;60147;55.036;73.242;2023-04-10T15:11:58;22.67;;;3.35;;
64060;SDS011;60147;55.036;73.242;2023-04-10T15:14:33;14.88;;;2.60;;
64060;SDS011;60147;55.036;73.242;2023-04-10T15:16:59;16.27;;;2.35;;
64060;SDS011;60147;55.036;73.242;2023-04-10T15:19:25;18.20;;;5.07;;
64060;SDS011;60147;55.036;73.242;2023-04-10T15:21:52;7.47;;;1.67;;
64060;SDS011;60147;55.036;73.242;2023-04-10T15:24:23;20.60;;;8.13;;
64060;SDS011;60147;55.036;73.242;2023-04-10T15:26:49;18.35;;;6.85;;
64060;SDS011;60147;55.036;73.242;2023-04-10T15:32:12;20.73;;;6.18;;
64060;SDS011;60147;55.036;73.242;2023-04-10T15:34:49;25.13;;;8.30;;
64060;SDS011;60147;55.036;73.242;2023-04-10T15:37:15;19.17;;;7.32;;
64060;SDS011;60147;55.036;73.242;2023-04-10T15:39:41;18.90;;;7.65;;
64060;SDS011;60147;55.036;73.242;2023-04-10T15:44:57;12.95;;;4.45;;
64060;SDS011;60147;55.036;73.242;2023-04-10T15:47:23;14.07;;;4.95;;
64060;SDS011;60147;55.036;73.242;2023-04-10T15:49:49;20.85;;;8.00;;
64060;SDS011;60147;55.036;73.242;2023-04-10T15:52:22;8.25;;;3.40;;
64060;SDS011;60147;55.036;73.242;2023-04-10T15:57:51;4.38;;;1.70;;
64060;SDS011;60147;55.036;73.242;2023-04-10T16:00:17;35.67;;;3.80;;
64060;SDS011;60147;55.036;73.242;2023-04-10T16:02:43;47.80;;;5.40;;
64060;SDS011;60147;55.036;73.242;2023-04-10T16:05:27;30.88;;;4.20;;
64060;SDS011;60147;55.036;73.242;2023-04-10T16:07:59;20.50;;;2.88;;
64060;SDS011;60147;55.036;73.242;2023-04-10T16:10:34;5.57;;;1.80;;
64060;SDS011;60147;55.036;73.242;2023-04-10T16:13:00;6.88;;;1.30;;
64060;SDS011;60147;55.036;73.242;2023-04-10T16:15:29;9.70;;;1.92;;
64060;SDS011;60147;55.036;73.242;2023-04-10T16:17:56;4.95;;;1.55;;
64060;SDS011;60147;55.036;73.242;2023-04-10T16:20:41;10.05;;;1.67;;
64060;SDS011;60147;55.036;73.242;2023-04-10T16:23:12;6.25;;;1.85;;
64060;SDS011;60147;55.036;73.242;2023-04-10T16:25:48;5.90;;;2.00;;
64060;SDS011;60147;55.036;73.242;2023-04-10T16:33:55;10.73;;;1.95;;
64060;SDS011;60147;55.036;73.242;2023-04-10T16:36:39;4.10;;;1.90;;
64060;SDS011;60147;55.036;73.242;2023-04-10T16:39:05;5.00;;;1.67;;
64060;SDS011;60147;55.036;73.242;2023-04-10T16:41:32;10.27;;;2.10;;
64060;SDS011;60147;55.036;73.242;2023-04-10T16:43:58;9.90;;;2.47;;
64060;SDS011;60147;55.036;73.242;2023-04-10T16:46:24;3.28;;;1.30;;
64060;SDS011;60147;55.036;73.242;2023-04-10T16:48:50;2.00;;;1.10;;
64060;SDS011;60147;55.036;73.242;2023-04-10T16:51:22;2.20;;;0.98;;
64060;SDS011;60147;55.036;73.242;2023-04-10T16:53:58;3.55;;;1.80;;
64060;SDS011;60147;55.036;73.242;2023-04-10T16:56:24;7.35;;;1.50;;
64060;SDS011;60147;55.036;73.242;2023-04-10T17:01:35;6.22;;;1.83;;
64060;SDS011;60147;55.036;73.242;2023-04-10T17:04:32;6.93;;;1.50;;
64060;SDS011;60147;55.036;73.242;2023-04-10T17:06:58;6.55;;;1.80;;
64060;SDS011;60147;55.036;73.242;2023-04-10T17:09:24;5.05;;;1.90;;
64060;SDS011;60147;55.036;73.242;2023-04-10T17:14:22;6.72;;;1.65;;
64060;SDS011;60147;55.036;73.242;2023-04-10T17:16:48;2.67;;;1.15;;
64060;SDS011;60147;55.036;73.242;2023-04-10T17:19:32;10.70;;;1.80;;
64060;SDS011;60147;55.036;73.242;2023-04-10T17:21:58;6.25;;;1.90;;
64060;SDS011;60147;55.036;73.242;2023-04-10T17:24:43;7.93;;;1.80;;
64060;SDS011;60147;55.036;73.242;2023-04-10T17:30:13;10.57;;;2.63;;
64060;SDS011;60147;55.036;73.242;2023-04-10T17:32:57;4.28;;;2.25;;
64060;SDS011;60147;55.036;73.242;2023-04-10T17:35:42;6.40;;;1.92;;
64060;SDS011;60147;55.036;73.242;2023-04-10T17:38:08;7.93;;;2.25;;
64060;SDS011;60147;55.036;73.242;2023-04-10T17:40:37;9.27;;;2.20;;